Time;durP1;ratioP1;P1;durP2;ratioP2;P2;SDS_P1;SDS_P2;PMS_P1;PMS_P2;Temp;Humidity;BMP_temperature;BMP_pressure;BME280_temperature;BME280_humidity;BME280_pressure;Samples;Min_cycle;Max_cycle;Signal;HPM_P1;HPM_P2
2021/12/02 00:01:26;;;;;;;4.90;2.50;;;4.80;99.90;;;;;;5003080;28;20175;-81
2021/12/02 00:03:53;;;;;;;6.97;2.90;;;4.70;99.90;;;;;;4984458;28;20200;-83
2021/12/02 00:06:19;;;;;;;3.70;2.95;;;4.70;99.90;;;;;;5009547;28;20195;-81
2021/12/02 00:08:47;;;;;;;4.25;2.00;;;4.60;99.90;;;;;;4981209;28;20706;-81
2021/12/02 00:11:14;;;;;;;2.50;1.90;;;4.70;99.90;;;;;;4980384;28;20183;-81
2021/12/02 00:21:25;;;;;;;2.92;1.60;;;4.80;99.90;;;;;;4995694;28;20187;-80
2021/12/02 00:24:09;;;;;;;4.90;1.77;;;4.80;99.90;;;;;;4989229;28;20258;-82
2021/12/02 00:26:38;;;;;;;4.35;1.73;;;4.80;99.90;;;;;;4989197;28;20189;-82
2021/12/02 00:29:05;;;;;;;6.38;2.08;;;4.90;99.90;;;;;;5017040;28;20176;-80
2021/12/02 00:31:35;;;;;;;4.22;2.17;;;4.90;99.90;;;;;;4989372;28;20234;-79
2021/12/02 00:34:04;;;;;;;3.15;1.80;;;5.00;99.90;;;;;;5010249;28;20234;-83
2021/12/02 00:36:32;;;;;;;6.20;1.67;;;5.00;99.90;;;;;;4997604;28;20214;-82
2021/12/02 00:39:00;;;;;;;3.90;1.42;;;5.00;99.90;;;;;;4998191;28;20685;-80
2021/12/02 00:41:28;;;;;;;2.90;1.52;;;5.10;99.90;;;;;;4990666;28;20258;-82
2021/12/02 00:43:55;;;;;;;4.88;1.70;;;4.90;99.90;;;;;;4994484;28;20206;-83
2021/12/02 00:46:23;;;;;;;3.10;1.48;;;4.90;99.90;;;;;;4988334;28;20213;-83
2021/12/02 00:48:49;;;;;;;3.35;1.67;;;5.00;99.90;;;;;;5001248;28;20210;-83
2021/12/02 00:51:17;;;;;;;2.23;1.73;;;5.00;99.90;;;;;;4996768;28;20260;-83
2021/12/02 00:53:46;;;;;;;3.53;2.33;;;5.10;99.90;;;;;;4995067;28;20546;-82
2021/12/02 00:56:15;;;;;;;2.05;1.20;;;5.10;99.90;;;;;;4997893;28;20196;-81
2021/12/02 00:58:45;;;;;;;4.38;1.73;;;5.10;99.90;;;;;;4998257;28;20190;-83
2021/12/02 01:01:11;;;;;;;2.65;1.70;;;5.10;99.90;;;;;;5009899;28;20180;-82
2021/12/02 01:03:38;;;;;;;3.92;1.90;;;5.20;99.90;;;;;;5002055;28;20210;-82
2021/12/02 01:06:05;;;;;;;3.33;1.98;;;5.30;99.90;;;;;;4984338;28;21222;-82
2021/12/02 01:08:33;;;;;;;1.45;1.02;;;5.30;99.90;;;;;;4996280;28;20262;-80
2021/12/02 01:10:59;;;;;;;4.65;1.60;;;5.30;99.90;;;;;;4993591;28;20635;-82
2021/12/02 01:13:25;;;;;;;3.20;2.27;;;5.40;99.90;;;;;;5011637;28;20214;-82
2021/12/02 01:15:50;;;;;;;2.63;1.70;;;5.50;99.90;;;;;;4991773;28;20470;-82
2021/12/02 01:18:16;;;;;;;1.50;1.40;;;5.40;99.90;;;;;;4990022;28;20179;-81
2021/12/02 01:20:44;;;;;;;4.37;1.73;;;5.40;99.90;;;;;;4998333;28;20419;-82
2021/12/02 01:23:11;;;;;;;2.85;1.90;;;5.40;99.90;;;;;;4986461;28;20419;-84
2021/12/02 01:25:37;;;;;;;4.30;1.80;;;5.30;99.90;;;;;;4989345;28;20678;-81
2021/12/02 01:28:03;;;;;;;1.58;1.38;;;5.30;99.90;;;;;;4998025;28;20194;-83
2021/12/02 01:30:32;;;;;;;4.60;1.48;;;5.30;99.90;;;;;;4999324;28;20662;-79
2021/12/02 01:33:01;;;;;;;3.95;1.23;;;5.40;99.90;;;;;;4985513;28;20525;-83
2021/12/02 01:35:28;;;;;;;5.20;1.13;;;5.40;99.90;;;;;;5000020;28;20181;-81
2021/12/02 01:37:54;;;;;;;1.70;1.60;;;5.40;99.90;;;;;;4996254;28;20178;-82
2021/12/02 01:40:20;;;;;;;3.95;1.65;;;5.40;99.90;;;;;;5012745;28;20206;-80
2021/12/02 01:42:50;;;;;;;1.73;1.20;;;5.40;99.90;;;;;;4990708;28;20249;-80
2021/12/02 01:45:20;;;;;;;6.63;1.40;;;5.40;99.90;;;;;;4976787;28;20203;-82
2021/12/02 01:47:51;;;;;;;5.85;1.10;;;5.30;99.90;;;;;;5010226;28;20205;-82
2021/12/02 01:50:21;;;;;;;2.80;1.60;;;5.30;99.90;;;;;;4987351;28;20178;-83
2021/12/02 01:52:57;;;;;;;3.20;1.52;;;5.30;99.90;;;;;;4999152;28;20661;-82
2021/12/02 01:55:26;;;;;;;2.47;1.90;;;5.30;99.90;;;;;;4987939;28;20615;-81
2021/12/02 01:58:03;;;;;;;5.15;1.45;;;5.30;99.90;;;;;;4990381;28;20233;-80
2021/12/02 02:00:41;;;;;;;6.97;1.45;;;5.30;99.90;;;;;;4968747;28;20198;-82
2021/12/02 02:03:08;;;;;;;1.48;1.00;;;5.30;99.90;;;;;;5009936;28;20258;-81
2021/12/02 02:05:34;;;;;;;2.78;1.23;;;5.30;99.90;;;;;;4985042;28;20178;-79
2021/12/02 02:08:17;;;;;;;2.37;1.90;;;5.30;99.90;;;;;;4992531;28;20191;-82
2021/12/02 02:10:44;;;;;;;6.82;1.77;;;5.40;99.90;;;;;;4983794;28;20186;-83
2021/12/02 02:13:12;;;;;;;5.43;1.42;;;5.40;99.90;;;;;;4980852;28;20188;-83
2021/12/02 02:15:41;;;;;;;3.30;1.27;;;5.40;99.90;;;;;;4994927;28;20675;-82
2021/12/02 02:18:19;;;;;;;4.43;1.70;;;5.40;99.90;;;;;;4997236;28;20170;-80
2021/12/02 02:21:14;;;;;;;3.97;1.58;;;5.40;99.90;;;;;;4984798;28;20170;-82
2021/12/02 02:23:41;;;;;;;5.65;1.80;;;5.40;99.90;;;;;;4998573;28;20337;-82
2021/12/02 02:26:08;;;;;;;2.95;1.10;;;5.30;99.90;;;;;;5014109;28;20182;-83
2021/12/02 02:28:34;;;;;;;4.30;1.50;;;5.30;99.90;;;;;;4997536;28;20644;-82
2021/12/02 02:31:00;;;;;;;1.77;1.40;;;5.20;99.90;;;;;;5013860;28;20182;-82
2021/12/02 02:35:58;;;;;;;2.03;1.50;;;5.20;99.90;;;;;;5027384;28;20222;-82
2021/12/02 02:38:24;;;;;;;4.13;1.67;;;5.20;99.90;;;;;;5037232;28;20180;-82
2021/12/02 02:40:49;;;;;;;5.33;1.90;;;5.20;99.90;;;;;;5042234;28;20180;-79
2021/12/02 02:43:22;;;;;;;8.23;2.03;;;5.20;99.90;;;;;;5024294;28;20241;-79
2021/12/02 02:45:48;;;;;;;3.63;1.05;;;5.20;99.90;;;;;;5026813;28;20205;-79
2021/12/02 02:48:13;;;;;;;1.10;0.93;;;5.10;99.90;;;;;;5027685;28;20197;-81
2021/12/02 02:50:39;;;;;;;3.53;1.60;;;5.10;99.90;;;;;;5038079;28;20760;-82
2021/12/02 02:53:12;;;;;;;3.20;1.50;;;5.20;99.90;;;;;;5038249;28;20182;-83
2021/12/02 02:55:38;;;;;;;2.55;1.75;;;5.20;99.90;;;;;;5054031;28;20809;-82
2021/12/02 03:00:59;;;;;;;3.40;1.70;;;5.20;99.90;;;;;;5035723;28;20194;-82
2021/12/02 03:04:13;;;;;;;8.25;1.67;;;5.10;99.90;;;;;;5027263;28;20182;-81
2021/12/02 03:09:04;;;;;;;3.67;1.60;;;5.00;99.90;;;;;;5034889;28;20610;-81
2021/12/02 03:11:39;;;;;;;1.75;0.90;;;5.10;99.90;;;;;;5036007;28;20197;-82
2021/12/02 03:14:16;;;;;;;1.67;1.20;;;5.10;99.90;;;;;;5038162;28;20189;-81
2021/12/02 03:16:44;;;;;;;9.70;2.15;;;5.10;99.90;;;;;;5035917;28;20729;-82
2021/12/02 03:19:12;;;;;;;3.47;1.70;;;5.00;99.90;;;;;;5039334;28;20174;-82
2021/12/02 03:21:38;;;;;;;3.95;1.30;;;4.90;99.90;;;;;;5039034;28;20205;-82
2021/12/02 03:24:05;;;;;;;5.63;1.40;;;4.90;99.90;;;;;;5036136;28;20190;-82
2021/12/02 03:26:32;;;;;;;7.72;1.50;;;4.90;99.90;;;;;;5041392;28;20178;-82
2021/12/02 03:28:58;;;;;;;5.57;1.55;;;4.90;99.90;;;;;;5034740;28;20174;-81
2021/12/02 03:31:24;;;;;;;9.15;1.77;;;4.90;99.90;;;;;;5037146;28;20182;-81
2021/12/02 03:33:50;;;;;;;2.30;1.60;;;4.90;99.90;;;;;;5039618;28;20213;-79
2021/12/02 03:36:17;;;;;;;3.50;1.60;;;4.90;99.90;;;;;;5035953;28;20551;-80
2021/12/02 03:38:43;;;;;;;2.83;1.58;;;4.90;99.90;;;;;;5031838;28;20184;-81
2021/12/02 03:41:08;;;;;;;3.33;1.70;;;4.90;99.90;;;;;;5021390;28;20197;-81
2021/12/02 03:43:39;;;;;;;7.13;0.73;;;5.00;99.90;;;;;;5011748;28;20189;-80
2021/12/02 03:46:07;;;;;;;3.38;1.10;;;5.00;99.90;;;;;;5017783;28;20627;-81
2021/12/02 03:48:36;;;;;;;4.95;1.55;;;5.00;99.90;;;;;;5021655;28;20182;-82
2021/12/02 03:51:02;;;;;;;1.65;1.10;;;5.00;99.90;;;;;;5018668;28;20177;-82
2021/12/02 03:53:28;;;;;;;5.53;1.30;;;5.00;99.90;;;;;;5037964;28;20248;-81
2021/12/02 03:55:53;;;;;;;3.60;1.33;;;5.00;99.90;;;;;;5036922;28;20724;-82
2021/12/02 03:58:19;;;;;;;3.97;1.10;;;;;;;;;;5024725;28;20184;-82
2021/12/02 04:00:44;;;;;;;4.87;1.77;;;5.10;99.90;;;;;;5038292;28;20193;-82
2021/12/02 04:03:10;;;;;;;4.87;1.80;;;;;;;;;;5018133;28;20426;-82
2021/12/02 04:05:36;;;;;;;5.63;1.10;;;;;;;;;;5039422;28;20201;-79
2021/12/02 04:08:02;;;;;;;3.90;1.37;;;5.00;99.90;;;;;;5021404;28;20524;-78
2021/12/02 04:10:28;;;;;;;4.10;1.77;;;5.10;99.90;;;;;;5032473;28;20524;-81
2021/12/02 04:15:49;;;;;;;9.75;1.75;;;5.00;99.90;;;;;;5032558;28;20206;-81
2021/12/02 04:18:14;;;;;;;3.55;1.67;;;4.90;99.90;;;;;;5036012;28;20174;-81
2021/12/02 04:20:40;;;;;;;2.63;1.60;;;4.90;99.90;;;;;;5035610;28;20177;-80
2021/12/02 04:23:06;;;;;;;3.27;1.40;;;;;;;;;;5019866;28;20394;-81
2021/12/02 04:25:31;;;;;;;4.30;2.00;;;4.80;99.90;;;;;;5033878;28;20198;-81
2021/12/02 04:27:57;;;;;;;11.33;1.27;;;4.90;99.90;;;;;;5022828;28;20426;-81
2021/12/02 04:30:25;;;;;;;6.73;1.30;;;5.00;99.90;;;;;;5034510;28;20232;-81
2021/12/02 04:32:52;;;;;;;4.43;1.98;;;5.50;99.90;;;;;;5023367;28;20192;-82
2021/12/02 04:35:17;;;;;;;4.00;1.35;;;5.00;99.90;;;;;;5018637;28;20205;-80
2021/12/02 04:37:44;;;;;;;3.37;1.33;;;5.00;99.90;;;;;;5017822;28;20186;-80
2021/12/02 04:40:16;;;;;;;6.65;2.67;;;5.00;99.90;;;;;;5018122;28;20905;-81
2021/12/02 04:42:43;;;;;;;4.63;1.55;;;5.00;99.90;;;;;;5037277;28;20178;-79
2021/12/02 04:45:09;;;;;;;5.35;1.65;;;4.90;99.90;;;;;;5014314;28;20202;-82
2021/12/02 04:47:34;;;;;;;5.75;1.50;;;4.90;99.90;;;;;;5033702;28;20185;-80
2021/12/02 04:50:00;;;;;;;2.20;1.33;;;4.80;99.90;;;;;;5035286;28;20185;-81
2021/12/02 04:52:26;;;;;;;3.87;1.40;;;4.80;99.90;;;;;;5037823;28;20275;-78
2021/12/02 04:54:51;;;;;;;6.90;1.87;;;4.70;99.90;;;;;;5026386;28;20209;-80
2021/12/02 04:57:17;;;;;;;3.50;1.70;;;4.70;99.90;;;;;;5025894;28;20424;-80
2021/12/02 04:59:42;;;;;;;4.27;2.00;;;4.70;99.90;;;;;;5020799;28;20205;-79
2021/12/02 05:02:08;;;;;;;7.27;1.80;;;4.70;99.90;;;;;;5014932;28;20186;-81
2021/12/02 05:04:34;;;;;;;2.90;1.60;;;4.80;99.90;;;;;;5018641;28;20280;-81
2021/12/02 05:07:00;;;;;;;3.30;1.60;;;4.90;99.90;;;;;;5014817;28;20490;-81
2021/12/02 05:09:25;;;;;;;3.93;1.70;;;4.90;99.90;;;;;;5030976;28;20264;-82
2021/12/02 05:11:51;;;;;;;5.03;2.30;;;;;;;;;;5032632;28;20233;-81
2021/12/02 05:14:17;;;;;;;3.40;1.30;;;;;;;;;;5010659;28;20216;-82
2021/12/02 05:16:43;;;;;;;7.87;1.53;;;5.00;99.90;;;;;;5009231;28;20504;-80
2021/12/02 05:19:09;;;;;;;7.25;1.70;;;;;;;;;;5026222;28;20783;-79
2021/12/02 05:21:35;;;;;;;2.78;1.20;;;4.90;99.90;;;;;;5025329;28;20181;-78
2021/12/02 05:24:00;;;;;;;5.57;2.43;;;4.90;99.90;;;;;;5026476;28;20220;-77
2021/12/02 05:26:27;;;;;;;5.90;1.90;;;4.90;99.90;;;;;;5003573;28;20678;-78
2021/12/02 05:28:53;;;;;;;2.85;1.60;;;4.70;99.90;;;;;;5021141;28;20181;-78
2021/12/02 05:31:20;;;;;;;4.85;1.58;;;4.70;99.90;;;;;;5023634;28;20411;-77
2021/12/02 05:33:46;;;;;;;4.03;2.28;;;4.70;99.90;;;;;;5015012;28;21035;-77
2021/12/02 05:36:11;;;;;;;4.90;2.43;;;4.70;99.90;;;;;;5027796;28;20197;-77
2021/12/02 05:38:37;;;;;;;5.43;2.20;;;4.80;99.90;;;;;;5004004;28;20182;-77
2021/12/02 05:41:03;;;;;;;10.25;1.77;;;4.80;99.90;;;;;;5019127;28;20180;-77
2021/12/02 05:43:30;;;;;;;4.20;1.33;;;4.70;99.90;;;;;;5014745;28;20186;-77
2021/12/02 05:45:56;;;;;;;5.40;2.67;;;4.70;99.90;;;;;;5028772;28;20200;-81
2021/12/02 05:48:21;;;;;;;4.32;1.48;;;4.70;99.90;;;;;;5025597;28;20452;-82
2021/12/02 05:50:47;;;;;;;5.63;1.93;;;4.60;99.90;;;;;;5027270;28;20182;-84
2021/12/02 05:53:13;;;;;;;3.42;1.77;;;;;;;;;;5014797;28;20472;-83
2021/12/02 05:55:39;;;;;;;4.67;2.20;;;4.60;99.90;;;;;;5014538;28;20213;-83
2021/12/02 05:58:06;;;;;;;4.10;1.57;;;4.50;99.90;;;;;;5013558;28;20776;-82
2021/12/02 06:00:33;;;;;;;3.60;1.75;;;4.50;99.90;;;;;;5021024;28;20239;-83
2021/12/02 06:02:59;;;;;;;2.58;1.77;;;4.40;99.90;;;;;;5009695;28;20178;-82
2021/12/02 06:05:25;;;;;;;12.73;2.57;;;;;;;;;;5018504;28;20212;-83
2021/12/02 06:07:52;;;;;;;5.32;1.98;;;4.40;99.90;;;;;;5019266;28;20189;-82
2021/12/02 06:10:18;;;;;;;10.25;2.60;;;4.40;99.90;;;;;;5039000;28;20211;-83
2021/12/02 06:12:44;;;;;;;6.33;2.60;;;4.40;99.90;;;;;;5023314;28;20272;-83
2021/12/02 06:15:10;;;;;;;4.30;2.07;;;4.40;99.90;;;;;;5016920;28;20198;-83
2021/12/02 06:17:38;;;;;;;31.15;2.78;;;4.40;99.90;;;;;;5030216;28;20463;-83
2021/12/02 06:20:06;;;;;;;4.82;2.30;;;4.40;99.90;;;;;;5016862;28;20650;-84
2021/12/02 06:22:32;;;;;;;3.55;2.40;;;4.40;99.90;;;;;;5022627;28;20180;-84
2021/12/02 06:27:38;;;;;;;4.93;2.60;;;4.40;99.90;;;;;;5038281;28;20970;-83
2021/12/02 06:30:05;;;;;;;2.73;2.43;;;4.30;99.90;;;;;;5033999;28;20194;-83
2021/12/02 06:32:30;;;;;;;10.60;2.85;;;4.20;99.90;;;;;;5021222;28;20461;-83
2021/12/02 06:34:56;;;;;;;8.50;1.90;;;4.20;99.90;;;;;;5018828;28;20322;-83
2021/12/02 06:37:21;;;;;;;5.00;1.93;;;4.30;99.90;;;;;;5032197;28;20182;-83
2021/12/02 06:39:47;;;;;;;5.20;2.00;;;4.20;99.90;;;;;;5020493;28;20185;-82
2021/12/02 06:42:14;;;;;;;2.70;1.80;;;4.30;99.90;;;;;;5019502;28;20182;-84
2021/12/02 06:44:39;;;;;;;6.28;3.65;;;4.30;99.90;;;;;;5013540;28;20253;-83
2021/12/02 06:47:05;;;;;;;4.87;2.73;;;4.20;99.90;;;;;;5032941;28;20178;-82
2021/12/02 06:49:32;;;;;;;10.87;2.40;;;4.20;99.90;;;;;;5020152;28;20190;-83
2021/12/02 06:51:59;;;;;;;6.38;1.85;;;4.20;99.90;;;;;;5018916;28;20188;-81
2021/12/02 06:54:24;;;;;;;5.10;3.22;;;4.20;99.90;;;;;;5038903;28;20284;-81
2021/12/02 06:56:52;;;;;;;5.65;2.88;;;;;;;;;;5024246;28;20212;-83
2021/12/02 06:59:18;;;;;;;10.43;2.42;;;4.20;99.90;;;;;;5017754;28;20178;-83
2021/12/02 07:01:45;;;;;;;8.45;2.60;;;4.20;99.90;;;;;;5035621;28;20273;-82
2021/12/02 07:04:10;;;;;;;5.10;2.22;;;4.30;99.90;;;;;;5019731;28;20194;-83
2021/12/02 07:06:38;;;;;;;6.83;2.67;;;4.30;99.90;;;;;;5035387;28;20277;-82
2021/12/02 07:09:04;;;;;;;4.70;3.15;;;4.40;99.90;;;;;;5019182;28;20534;-81
2021/12/02 07:11:30;;;;;;;5.10;2.70;;;4.50;99.90;;;;;;5022479;28;20276;-82
2021/12/02 07:14:00;;;;;;;4.27;2.20;;;4.60;99.90;;;;;;5020542;28;20461;-85
2021/12/02 07:16:26;;;;;;;4.68;2.03;;;4.60;99.90;;;;;;5017981;28;20199;-83
2021/12/02 07:18:55;;;;;;;7.37;2.70;;;4.60;99.90;;;;;;5037741;28;20181;-85
2021/12/02 07:21:21;;;;;;;6.43;2.60;;;4.70;99.90;;;;;;5038017;28;20201;-85
2021/12/02 07:23:47;;;;;;;4.18;1.85;;;4.70;99.90;;;;;;5020112;28;20201;-84
2021/12/02 07:26:13;;;;;;;8.23;3.53;;;4.70;99.90;;;;;;5035879;28;20185;-84
2021/12/02 07:28:38;;;;;;;3.27;2.60;;;4.70;99.90;;;;;;5036016;28;20196;-85
2021/12/02 07:31:06;;;;;;;6.23;3.57;;;4.80;99.90;;;;;;5026172;28;20479;-84
2021/12/02 07:33:36;;;;;;;3.95;2.10;;;4.90;99.90;;;;;;5035603;28;20186;-84
2021/12/02 07:36:02;;;;;;;9.38;3.28;;;4.90;99.90;;;;;;5019127;28;20283;-85
2021/12/02 07:38:28;;;;;;;4.67;2.60;;;5.00;99.90;;;;;;5016871;28;20204;-85
2021/12/02 07:40:54;;;;;;;2.10;1.45;;;5.00;99.90;;;;;;5035059;28;20448;-84
2021/12/02 07:43:21;;;;;;;4.00;2.10;;;5.00;99.90;;;;;;5017000;28;20166;-83
2021/12/02 07:45:47;;;;;;;2.13;1.90;;;5.00;99.90;;;;;;5015599;28;20219;-85
2021/12/02 07:48:14;;;;;;;4.37;2.00;;;5.00;99.90;;;;;;5018007;28;20699;-85
2021/12/02 07:50:39;;;;;;;2.75;1.42;;;5.10;99.90;;;;;;5016604;28;20181;-83
2021/12/02 07:53:07;;;;;;;4.20;1.60;;;5.10;99.90;;;;;;5018333;28;20592;-84
2021/12/02 07:55:37;;;;;;;3.10;2.00;;;5.10;99.90;;;;;;5029435;28;20211;-85
2021/12/02 07:58:05;;;;;;;5.75;2.45;;;5.20;99.90;;;;;;5028619;28;20216;-83
2021/12/02 08:00:30;;;;;;;2.97;2.30;;;5.10;99.90;;;;;;5019386;28;20174;-84
2021/12/02 08:02:56;;;;;;;3.23;2.23;;;5.10;99.90;;;;;;5017866;28;20221;-84
2021/12/02 08:05:23;;;;;;;3.50;2.27;;;5.20;99.90;;;;;;5028713;28;20216;-83
2021/12/02 08:07:50;;;;;;;4.85;1.92;;;5.20;99.90;;;;;;5018903;28;20189;-80
2021/12/02 08:10:16;;;;;;;3.10;2.05;;;5.20;99.90;;;;;;5030860;28;20313;-80
2021/12/02 08:12:47;;;;;;;5.40;2.20;;;5.30;99.90;;;;;;5031970;28;20182;-80
2021/12/02 08:15:13;;;;;;;2.72;1.55;;;5.20;99.90;;;;;;5029362;28;20197;-78
2021/12/02 08:17:38;;;;;;;3.00;2.00;;;5.20;99.90;;;;;;5028771;28;20185;-82
2021/12/02 08:20:05;;;;;;;4.07;1.93;;;5.20;99.90;;;;;;5031864;28;20182;-78
2021/12/02 08:22:31;;;;;;;5.50;2.58;;;5.20;99.90;;;;;;5031456;28;20194;-79
2021/12/02 08:24:58;;;;;;;6.28;3.05;;;5.20;99.90;;;;;;5036078;28;20204;-80
2021/12/02 08:27:24;;;;;;;4.43;2.00;;;5.20;99.90;;;;;;5020062;28;20228;-84
2021/12/02 08:29:49;;;;;;;5.10;2.53;;;5.20;99.90;;;;;;5016500;28;20181;-80
2021/12/02 08:32:15;;;;;;;2.30;1.67;;;5.20;99.90;;;;;;5031860;28;20447;-80
2021/12/02 08:34:41;;;;;;;3.27;2.43;;;5.10;99.90;;;;;;5042065;23;20315;-83
2021/12/02 08:37:09;;;;;;;5.00;2.90;;;5.10;99.90;;;;;;5042578;28;20188;-84
2021/12/02 08:39:34;;;;;;;3.33;2.20;;;5.10;99.90;;;;;;5045814;28;20192;-83
2021/12/02 08:42:02;;;;;;;4.20;2.50;;;5.10;99.90;;;;;;5030482;28;20189;-85
2021/12/02 08:44:31;;;;;;;4.40;1.98;;;5.20;99.90;;;;;;5030052;28;20206;-83
2021/12/02 08:46:57;;;;;;;10.32;2.75;;;5.10;99.90;;;;;;5005667;28;20204;-83
2021/12/02 08:49:23;;;;;;;2.70;1.90;;;5.20;99.90;;;;;;5003246;28;20185;-85
2021/12/02 08:51:51;;;;;;;4.22;2.35;;;5.10;99.90;;;;;;5028085;28;20182;-83
2021/12/02 08:54:17;;;;;;;8.10;2.22;;;5.00;99.90;;;;;;5024174;28;20192;-83
2021/12/02 08:56:42;;;;;;;2.10;1.67;;;5.00;99.90;;;;;;5021523;28;20205;-84
2021/12/02 08:59:08;;;;;;;5.77;1.80;;;4.90;99.90;;;;;;5014840;28;20582;-84
2021/12/02 09:01:34;;;;;;;2.00;1.27;;;4.90;99.90;;;;;;5004281;28;20173;-83
2021/12/02 09:04:03;;;;;;;2.10;1.70;;;4.70;99.90;;;;;;5001802;28;20957;-82
2021/12/02 09:06:32;;;;;;;2.72;2.20;;;4.70;99.90;;;;;;5026462;28;20594;-84
2021/12/02 09:08:59;;;;;;;5.32;2.13;;;4.70;99.90;;;;;;5027419;28;20281;-85
2021/12/02 09:11:28;;;;;;;2.20;1.13;;;4.60;99.90;;;;;;5014692;28;20182;-83
2021/12/02 09:13:58;;;;;;;1.67;1.05;;;4.20;99.90;;;;;;4999272;28;20174;-83
2021/12/02 09:16:25;;;;;;;1.80;0.70;;;3.90;99.90;;;;;;4998216;28;20217;-81
2021/12/02 09:18:51;;;;;;;1.05;0.73;;;3.50;99.90;;;;;;5022034;28;20255;-83
2021/12/02 09:21:17;;;;;;;1.05;0.50;;;2.90;99.90;;;;;;4999312;28;20294;-83
2021/12/02 09:23:42;;;;;;;1.47;0.67;;;2.90;99.90;;;;;;5024813;28;20217;-83
2021/12/02 09:26:08;;;;;;;2.40;0.50;;;2.80;99.90;;;;;;5024341;28;20724;-83
2021/12/02 09:28:33;;;;;;;1.47;0.40;;;2.70;99.90;;;;;;5011309;28;20570;-84
2021/12/02 09:30:59;;;;;;;0.50;0.50;;;2.60;99.90;;;;;;5002637;28;20181;-86
2021/12/02 09:33:24;;;;;;;1.37;1.20;;;2.70;99.90;;;;;;5013758;28;20190;-83
2021/12/02 09:35:50;;;;;;;2.53;2.33;;;2.70;99.90;;;;;;5024258;28;20202;-86
2021/12/02 09:38:16;;;;;;;2.00;1.57;;;;;;;;;;5024408;28;20170;-83
2021/12/02 09:40:42;;;;;;;1.20;1.10;;;2.80;99.90;;;;;;5029956;28;20185;-83
2021/12/02 09:43:10;;;;;;;1.50;0.63;;;2.90;99.90;;;;;;4992819;28;20497;-83
2021/12/02 09:45:37;;;;;;;3.40;0.80;;;3.00;99.90;;;;;;5015300;28;20213;-83
2021/12/02 09:48:03;;;;;;;2.17;0.88;;;3.00;99.90;;;;;;5010510;28;20174;-83
2021/12/02 09:50:38;;;;;;;2.23;0.67;;;3.00;99.90;;;;;;5017976;28;21700;-80
2021/12/02 09:53:11;;;;;;;1.65;1.02;;;3.10;99.90;;;;;;5033506;28;20466;-83
2021/12/02 09:58:11;;;;;;;2.05;1.05;;;3.30;99.90;;;;;;5021956;28;20181;-84
2021/12/02 10:03:06;;;;;;;2.57;2.03;;;;;;;;;;5017264;28;20225;-84
2021/12/02 10:05:48;;;;;;;1.85;1.48;;;3.50;99.90;;;;;;5012577;28;20495;-82
2021/12/02 10:08:26;;;;;;;3.70;2.15;;;3.60;99.90;;;;;;5018875;28;20171;-83
2021/12/02 10:11:05;;;;;;;1.55;1.45;;;3.80;99.90;;;;;;4996935;28;20185;-85
2021/12/02 10:13:38;;;;;;;3.40;1.92;;;3.80;99.90;;;;;;4996262;28;20184;-84
2021/12/02 10:16:21;;;;;;;8.23;2.17;;;3.90;99.90;;;;;;5013846;28;20301;-83
2021/12/02 10:18:58;;;;;;;3.50;1.90;;;4.00;99.90;;;;;;4998456;28;20174;-83
2021/12/02 10:21:39;;;;;;;1.05;0.95;;;4.00;99.90;;;;;;4998282;28;20189;-82
2021/12/02 10:24:16;;;;;;;1.77;1.45;;;4.00;99.90;;;;;;5026311;28;20236;-84
2021/12/02 10:26:56;;;;;;;2.30;1.75;;;4.10;99.90;;;;;;4999771;28;20284;-85
2021/12/02 10:29:29;;;;;;;16.13;3.15;;;4.10;99.90;;;;;;5014834;28;20190;-85
2021/12/02 10:32:20;;;;;;;4.95;1.52;;;4.10;99.90;;;;;;5016083;28;20685;-84
2021/12/02 10:35:10;;;;;;;1.05;0.63;;;4.10;99.90;;;;;;5002695;28;20258;-85
2021/12/02 10:37:39;;;;;;;1.30;1.13;;;4.00;99.90;;;;;;5021738;28;20163;-85
2021/12/02 10:40:07;;;;;;;2.00;0.75;;;3.90;99.90;;;;;;5023844;28;20268;-84
2021/12/02 10:42:37;;;;;;;2.83;0.95;;;3.90;99.90;;;;;;5006876;28;20174;-84
2021/12/02 10:45:06;;;;;;;2.55;1.25;;;4.00;99.90;;;;;;5015242;28;20273;-83
2021/12/02 10:47:33;;;;;;;1.45;0.93;;;3.90;99.90;;;;;;5015385;28;20272;-82
2021/12/02 10:50:10;;;;;;;2.45;1.30;;;3.90;99.90;;;;;;5023188;28;20189;-86
2021/12/02 10:52:37;;;;;;;1.58;1.00;;;3.90;99.90;;;;;;4998824;28;20547;-84
2021/12/02 10:55:09;;;;;;;1.77;1.30;;;3.90;99.90;;;;;;5028736;28;20446;-82
2021/12/02 10:57:37;;;;;;;2.67;1.80;;;3.90;99.90;;;;;;5027589;28;20184;-81
2021/12/02 11:00:12;;;;;;;2.95;1.50;;;3.90;99.90;;;;;;4994925;28;20666;-81
2021/12/02 11:02:40;;;;;;;8.88;2.42;;;3.90;99.90;;;;;;5000713;28;20174;-81
2021/12/02 11:05:11;;;;;;;6.25;3.10;;;3.80;99.90;;;;;;5021314;28;20225;-81
2021/12/02 11:07:39;;;;;;;4.15;2.38;;;3.80;99.90;;;;;;4998419;28;20192;-81
2021/12/02 11:10:08;;;;;;;5.10;2.65;;;3.90;99.90;;;;;;4996035;28;20189;-82
2021/12/02 11:12:40;;;;;;;4.60;2.45;;;3.80;99.90;;;;;;5025672;28;20192;-81
2021/12/02 11:15:15;;;;;;;5.13;2.03;;;3.80;99.90;;;;;;4996439;28;20233;-81
2021/12/02 11:17:48;;;;;;;2.22;1.67;;;3.80;99.90;;;;;;4993260;28;20173;-81
2021/12/02 11:20:30;;;;;;;2.83;1.95;;;3.80;99.90;;;;;;4994314;28;20539;-81
2021/12/02 11:23:10;;;;;;;4.68;2.20;;;3.90;99.90;;;;;;5019337;28;20770;-82
2021/12/02 11:25:39;;;;;;;5.43;2.00;;;3.90;99.90;;;;;;5021628;28;20660;-82
2021/12/02 11:28:08;;;;;;;2.03;1.67;;;3.90;99.90;;;;;;5000222;28;20257;-80
2021/12/02 11:30:35;;;;;;;3.28;2.47;;;3.90;99.90;;;;;;5013557;28;20257;-82
2021/12/02 11:33:04;;;;;;;6.78;2.13;;;4.00;99.90;;;;;;4996399;28;20225;-83
2021/12/02 11:35:42;;;;;;;7.95;2.83;;;3.90;99.90;;;;;;5013117;28;20760;-83
2021/12/02 11:38:22;;;;;;;6.20;3.20;;;4.10;99.90;;;;;;5015419;28;20166;-83
2021/12/02 11:40:50;;;;;;;4.57;2.78;;;4.10;99.90;;;;;;5014399;28;20545;-83
2021/12/02 11:43:19;;;;;;;6.90;3.33;;;4.20;99.90;;;;;;5015150;28;20178;-83
2021/12/02 11:45:47;;;;;;;6.95;3.08;;;4.40;99.90;;;;;;4998453;28;20202;-82
2021/12/02 11:48:15;;;;;;;6.65;2.70;;;4.50;99.90;;;;;;5012318;28;20193;-82
2021/12/02 11:50:42;;;;;;;6.45;3.10;;;4.60;99.90;;;;;;4993147;28;20195;-82
2021/12/02 11:53:07;;;;;;;3.55;2.70;;;4.70;99.90;;;;;;4999297;28;20186;-82
2021/12/02 11:55:39;;;;;;;3.33;2.33;;;4.60;99.90;;;;;;5023564;28;20629;-83
2021/12/02 11:58:06;;;;;;;4.38;2.30;;;4.60;99.90;;;;;;5025784;28;20168;-84
2021/12/02 12:00:33;;;;;;;4.85;1.92;;;4.60;99.90;;;;;;4997696;28;20903;-83
2021/12/02 12:03:08;;;;;;;3.08;2.30;;;4.50;99.90;;;;;;4994309;28;20623;-84
2021/12/02 12:06:06;;;;;;;2.38;1.50;;;4.50;99.90;;;;;;4995034;28;20201;-83
2021/12/02 12:08:45;;;;;;;2.45;1.15;;;4.30;99.90;;;;;;5002401;28;20198;-82
2021/12/02 12:11:23;;;;;;;2.05;1.55;;;4.30;99.90;;;;;;4997480;28;20269;-81
2021/12/02 12:13:56;;;;;;;1.48;1.30;;;4.20;99.90;;;;;;5025266;28;20174;-83
2021/12/02 12:16:42;;;;;;;1.85;1.20;;;4.20;99.90;;;;;;5014608;28;20328;-83
2021/12/02 12:19:27;;;;;;;3.25;1.65;;;4.30;99.90;;;;;;5003703;28;20190;-82
2021/12/02 12:22:14;;;;;;;4.97;2.95;;;4.20;99.90;;;;;;4998427;28;20601;-83
2021/12/02 12:24:53;;;;;;;4.97;2.67;;;4.30;99.90;;;;;;4989014;28;20214;-83
2021/12/02 12:27:30;;;;;;;2.53;2.10;;;4.60;99.90;;;;;;5000333;28;20178;-83
2021/12/02 12:30:09;;;;;;;3.60;1.65;;;4.80;99.90;;;;;;4997913;28;20280;-82
2021/12/02 12:33:12;;;;;;;2.58;1.30;;;4.70;99.90;;;;;;4996369;28;20240;-83
2021/12/02 12:38:32;;;;;;;2.38;1.30;;;4.70;99.90;;;;;;5017200;28;20599;-82
2021/12/02 12:41:09;;;;;;;2.75;1.90;;;4.80;99.90;;;;;;4999096;28;20717;-86
2021/12/02 12:43:48;;;;;;;1.70;1.58;;;4.90;99.90;;;;;;5001160;28;20181;-84
2021/12/02 12:46:32;;;;;;;2.42;1.50;;;5.00;99.90;;;;;;5014724;28;20801;-84
2021/12/02 12:49:15;;;;;;;2.70;1.40;;;4.80;99.90;;;;;;5018730;28;20177;-82
2021/12/02 12:51:55;;;;;;;4.03;1.48;;;4.60;99.90;;;;;;5021920;28;20543;-85
2021/12/02 12:54:23;;;;;;;3.45;1.10;;;4.60;99.90;;;;;;5002558;28;20200;-84
2021/12/02 12:57:02;;;;;;;1.45;1.08;;;4.50;99.90;;;;;;5021389;28;20252;-85
2021/12/02 12:59:28;;;;;;;1.73;1.23;;;4.50;99.90;;;;;;5018091;28;20177;-84
2021/12/02 13:01:57;;;;;;;1.37;0.93;;;4.60;99.90;;;;;;5014672;28;20267;-84
2021/12/02 13:04:25;;;;;;;2.47;1.60;;;4.50;99.90;;;;;;5001472;28;20761;-84
2021/12/02 13:06:53;;;;;;;3.08;2.17;;;4.50;99.90;;;;;;5013131;28;20181;-84
2021/12/02 13:09:44;;;;;;;4.38;1.55;;;4.40;99.90;;;;;;5019222;28;20236;-84
2021/12/02 13:12:12;;;;;;;1.15;1.00;;;4.30;99.90;;;;;;5022767;28;20181;-83
2021/12/02 13:14:41;;;;;;;2.03;1.65;;;4.30;99.90;;;;;;5018483;28;20205;-82
2021/12/02 13:17:38;;;;;;;2.70;2.10;;;4.30;99.90;;;;;;5001494;28;20199;-84
2021/12/02 13:20:19;;;;;;;3.65;1.85;;;4.30;99.90;;;;;;5019488;28;20189;-83
2021/12/02 13:22:47;;;;;;;2.67;0.77;;;4.30;99.90;;;;;;5020701;28;20756;-84
2021/12/02 13:25:54;;;;;;;2.22;1.50;;;4.20;99.90;;;;;;5017964;28;20202;-83
2021/12/02 13:28:27;;;;;;;2.40;1.42;;;4.30;99.90;;;;;;5011963;28;20206;-83
2021/12/02 13:31:03;;;;;;;1.30;1.20;;;4.30;99.90;;;;;;5022368;28;20177;-85
2021/12/02 13:33:46;;;;;;;1.20;0.70;;;4.40;99.90;;;;;;5020135;28;20732;-84
2021/12/02 13:36:13;;;;;;;1.80;1.23;;;4.30;99.90;;;;;;5000861;28;20210;-85
2021/12/02 13:38:42;;;;;;;2.30;1.00;;;4.20;99.90;;;;;;5021633;28;20214;-83
2021/12/02 13:41:20;;;;;;;1.25;1.15;;;4.20;99.90;;;;;;5002729;28;20305;-85